sensor_id;sensor_type;location;lat;lon;timestamp;pressure;altitude;pressure_sealevel;temperature;humidity
27304;BME280;14791;52.392;13.092;2023-02-23T00:02:08;100937.99;;;12.67;47.02
27304;BME280;14791;52.392;13.092;2023-02-23T00:04:37;100937.11;;;12.66;47.30
27304;BME280;14791;52.392;13.092;2023-02-23T00:07:06;100934.91;;;12.66;47.31
27304;BME280;14791;52.392;13.092;2023-02-23T00:09:35;100926.88;;;12.66;47.22
27304;BME280;14791;52.392;13.092;2023-02-23T00:12:06;100934.42;;;12.66;47.11
27304;BME280;14791;52.392;13.092;2023-02-23T00:14:35;100925.53;;;12.66;47.23
27304;BME280;14791;52.392;13.092;2023-02-23T00:17:06;100926.52;;;12.65;47.13
27304;BME280;14791;52.392;13.092;2023-02-23T00:19:39;100919.91;;;12.63;47.18
27304;BME280;14791;52.392;13.092;2023-02-23T00:22:10;100916.95;;;12.61;47.17
27304;BME280;14791;52.392;13.092;2023-02-23T00:24:39;100920.61;;;12.60;47.24
27304;BME280;14791;52.392;13.092;2023-02-23T00:27:10;100920.21;;;12.59;47.32
27304;BME280;14791;52.392;13.092;2023-02-23T00:29:41;100920.70;;;12.58;47.33
27304;BME280;14791;52.392;13.092;2023-02-23T00:32:10;100917.75;;;12.55;47.24
27304;BME280;14791;52.392;13.092;2023-02-23T00:34:39;100916.89;;;12.55;47.15
27304;BME280;14791;52.392;13.092;2023-02-23T00:37:08;100915.16;;;12.54;47.25
27304;BME280;14791;52.392;13.092;2023-02-23T00:39:39;100915.28;;;12.52;47.30
27304;BME280;14791;52.392;13.092;2023-02-23T00:42:08;100914.89;;;12.51;47.26
27304;BME280;14791;52.392;13.092;2023-02-23T00:44:37;100921.58;;;12.51;47.20
27304;BME280;14791;52.392;13.092;2023-02-23T00:47:07;100919.88;;;12.50;47.17
27304;BME280;14791;52.392;13.092;2023-02-23T00:49:36;100910.69;;;12.47;47.18
27304;BME280;14791;52.392;13.092;2023-02-23T00:52:05;100915.31;;;12.45;47.15
27304;BME280;14791;52.392;13.092;2023-02-23T00:54:34;100926.61;;;12.43;47.24
27304;BME280;14791;52.392;13.092;2023-02-23T00:57:03;100919.52;;;12.42;47.27
27304;BME280;14791;52.392;13.092;2023-02-23T00:59:32;100916.08;;;12.40;47.33
27304;BME280;14791;52.392;13.092;2023-02-23T01:02:01;100917.05;;;12.39;47.29
27304;BME280;14791;52.392;13.092;2023-02-23T01:04:30;100916.28;;;12.37;47.23
27304;BME280;14791;52.392;13.092;2023-02-23T01:06:58;100916.50;;;12.34;47.29
27304;BME280;14791;52.392;13.092;2023-02-23T01:09:29;100909.41;;;12.33;47.29
27304;BME280;14791;52.392;13.092;2023-02-23T01:11:58;100914.03;;;12.31;47.27
27304;BME280;14791;52.392;13.092;2023-02-23T01:14:29;100915.46;;;12.29;47.27
27304;BME280;14791;52.392;13.092;2023-02-23T01:16:58;100908.58;;;12.25;47.33
27304;BME280;14791;52.392;13.092;2023-02-23T01:19:27;100909.06;;;12.25;47.46
27304;BME280;14791;52.392;13.092;2023-02-23T01:21:56;100909.64;;;12.23;47.56
27304;BME280;14791;52.392;13.092;2023-02-23T01:24:25;100909.16;;;12.23;47.58
27304;BME280;14791;52.392;13.092;2023-02-23T01:26:54;100907.45;;;12.22;47.54
27304;BME280;14791;52.392;13.092;2023-02-23T01:29:23;100907.54;;;12.21;47.56
27304;BME280;14791;52.392;13.092;2023-02-23T01:31:52;100899.14;;;12.20;47.60
27304;BME280;14791;52.392;13.092;2023-02-23T01:34:21;100902.80;;;12.19;47.68
27304;BME280;14791;52.392;13.092;2023-02-23T01:36:50;100898.87;;;12.17;47.95
27304;BME280;14791;52.392;13.092;2023-02-23T01:39:19;100898.02;;;12.17;47.89
27304;BME280;14791;52.392;13.092;2023-02-23T01:41:48;100891.98;;;12.13;47.89
27304;BME280;14791;52.392;13.092;2023-02-23T01:46:51;100894.00;;;12.17;47.92
27304;BME280;14791;52.392;13.092;2023-02-23T01:49:22;100893.59;;;12.16;48.16
27304;BME280;14791;52.392;13.092;2023-02-23T01:51:58;100888.82;;;12.13;48.09
27304;BME280;14791;52.392;13.092;2023-02-23T01:54:34;100890.55;;;12.15;47.99
27304;BME280;14791;52.392;13.092;2023-02-23T01:57:03;100882.61;;;12.13;47.97
27304;BME280;14791;52.392;13.092;2023-02-23T01:59:43;100899.16;;;12.12;47.95
27304;BME280;14791;52.392;13.092;2023-02-23T02:02:08;100889.43;;;12.11;47.89
27304;BME280;14791;52.392;13.092;2023-02-23T02:04:39;100892.11;;;12.11;47.91
27304;BME280;14791;52.392;13.092;2023-02-23T02:07:17;100883.67;;;12.10;47.88
27304;BME280;14791;52.392;13.092;2023-02-23T02:09:50;100883.67;;;12.10;47.85
27304;BME280;14791;52.392;13.092;2023-02-23T02:12:48;100880.81;;;12.06;47.89
27304;BME280;14791;52.392;13.092;2023-02-23T02:15:12;100874.91;;;12.01;47.99
27304;BME280;14791;52.392;13.092;2023-02-23T02:18:07;100872.23;;;12.01;48.05
27304;BME280;14791;52.392;13.092;2023-02-23T02:21:08;100870.89;;;12.01;48.02
27304;BME280;14791;52.392;13.092;2023-02-23T02:26:32;100861.38;;;11.90;48.13
27304;BME280;14791;52.392;13.092;2023-02-23T02:29:06;100855.81;;;11.86;48.20
27304;BME280;14791;52.392;13.092;2023-02-23T02:40:01;100855.70;;;11.80;48.28
27304;BME280;14791;52.392;13.092;2023-02-23T02:42:36;100851.05;;;11.77;48.26
27304;BME280;14791;52.392;13.092;2023-02-23T02:45:11;100848.58;;;11.74;48.24
27304;BME280;14791;52.392;13.092;2023-02-23T02:48:05;100847.03;;;11.77;48.24
27304;BME280;14791;52.392;13.092;2023-02-23T02:53:10;100846.36;;;11.73;48.20
27304;BME280;14791;52.392;13.092;2023-02-23T02:55:43;100846.36;;;11.73;48.20
27304;BME280;14791;52.392;13.092;2023-02-23T02:58:16;100847.54;;;11.69;48.13
27304;BME280;14791;52.392;13.092;2023-02-23T03:00:47;100847.54;;;11.69;48.13
27304;BME280;14791;52.392;13.092;2023-02-23T03:03:44;100841.33;;;11.68;48.32
27304;BME280;14791;52.392;13.092;2023-02-23T03:06:29;100837.70;;;11.62;48.34
27304;BME280;14791;52.392;13.092;2023-02-23T03:12:32;100837.52;;;11.58;48.47
27304;BME280;14791;52.392;13.092;2023-02-23T03:21:42;100835.83;;;11.43;48.55
27304;BME280;14791;52.392;13.092;2023-02-23T03:24:30;100832.97;;;11.32;48.83
27304;BME280;14791;52.392;13.092;2023-02-23T03:33:29;100834.51;;;11.21;48.75
27304;BME280;14791;52.392;13.092;2023-02-23T03:36:15;100836.41;;;11.19;48.76
27304;BME280;14791;52.392;13.092;2023-02-23T03:39:31;100830.79;;;11.17;48.76
27304;BME280;14791;52.392;13.092;2023-02-23T03:42:16;100834.03;;;11.15;48.79
27304;BME280;14791;52.392;13.092;2023-02-23T03:45:13;100832.20;;;11.08;48.87
27304;BME280;14791;52.392;13.092;2023-02-23T03:47:57;100817.70;;;11.05;48.92
27304;BME280;14791;52.392;13.092;2023-02-23T03:50:57;100817.34;;;11.04;48.92
27304;BME280;14791;52.392;13.092;2023-02-23T03:53:41;100821.34;;;11.04;48.96
27304;BME280;14791;52.392;13.092;2023-02-23T03:56:26;100823.25;;;11.02;48.99
27304;BME280;14791;52.392;13.092;2023-02-23T03:59:15;100825.52;;;11.01;48.99
27304;BME280;14791;52.392;13.092;2023-02-23T04:02:05;100822.08;;;10.99;49.01
27304;BME280;14791;52.392;13.092;2023-02-23T04:04:54;100813.78;;;10.96;49.04
27304;BME280;14791;52.392;13.092;2023-02-23T04:07:43;100808.92;;;10.96;49.05
27304;BME280;14791;52.392;13.092;2023-02-23T04:10:33;100808.92;;;10.96;49.04
27304;BME280;14791;52.392;13.092;2023-02-23T04:13:23;100812.16;;;10.94;49.13
27304;BME280;14791;52.392;13.092;2023-02-23T04:15:58;100809.60;;;10.92;49.14
27304;BME280;14791;52.392;13.092;2023-02-23T04:18:28;100810.83;;;10.94;49.16
27304;BME280;14791;52.392;13.092;2023-02-23T04:20:58;100812.45;;;10.96;49.11
27304;BME280;14791;52.392;13.092;2023-02-23T04:23:28;100807.98;;;10.97;49.08
27304;BME280;14791;52.392;13.092;2023-02-23T04:25:57;100811.02;;;10.98;49.02
27304;BME280;14791;52.392;13.092;2023-02-23T04:28:27;100810.05;;;10.99;49.01
27304;BME280;14791;52.392;13.092;2023-02-23T04:30:56;100812.64;;;11.00;48.98
27304;BME280;14791;52.392;13.092;2023-02-23T04:33:25;100818.84;;;11.01;49.00
27304;BME280;14791;52.392;13.092;2023-02-23T04:35:54;100814.83;;;11.01;49.01
27304;BME280;14791;52.392;13.092;2023-02-23T04:38:23;100815.72;;;11.01;49.01
27304;BME280;14791;52.392;13.092;2023-02-23T04:40:52;100814.38;;;11.01;49.03
27304;BME280;14791;52.392;13.092;2023-02-23T04:43:21;100808.55;;;11.02;49.04
27304;BME280;14791;52.392;13.092;2023-02-23T04:45:50;100810.66;;;11.04;49.05
27304;BME280;14791;52.392;13.092;2023-02-23T04:48:19;100812.36;;;11.05;49.03
27304;BME280;14791;52.392;13.092;2023-02-23T04:50:53;100809.32;;;11.04;49.01
27304;BME280;14791;52.392;13.092;2023-02-23T04:53:22;100808.35;;;11.05;49.03
27304;BME280;14791;52.392;13.092;2023-02-23T04:55:52;100803.49;;;11.04;49.03
27304;BME280;14791;52.392;13.092;2023-02-23T04:58:21;100803.49;;;11.04;49.03
27304;BME280;14791;52.392;13.092;2023-02-23T05:00:50;100804.42;;;11.03;49.00
27304;BME280;14791;52.392;13.092;2023-02-23T05:03:19;100792.52;;;11.02;48.99
27304;BME280;14791;52.392;13.092;2023-02-23T05:05:48;100793.08;;;11.00;48.99
27304;BME280;14791;52.392;13.092;2023-02-23T05:08:17;100791.27;;;11.00;49.02
27304;BME280;14791;52.392;13.092;2023-02-23T05:10:46;100791.34;;;10.99;49.03
27304;BME280;14791;52.392;13.092;2023-02-23T05:13:14;100790.98;;;10.98;49.04
27304;BME280;14791;52.392;13.092;2023-02-23T05:15:43;100796.33;;;10.98;49.03
27304;BME280;14791;52.392;13.092;2023-02-23T05:18:12;100793.28;;;10.97;49.03
27304;BME280;14791;52.392;13.092;2023-02-23T05:20:42;100796.81;;;10.97;49.00
27304;BME280;14791;52.392;13.092;2023-02-23T05:23:14;100795.08;;;10.96;48.98
27304;BME280;14791;52.392;13.092;2023-02-23T05:25:43;100796.13;;;10.94;48.96
27304;BME280;14791;52.392;13.092;2023-02-23T05:28:12;100797.58;;;10.92;48.94
27304;BME280;14791;52.392;13.092;2023-02-23T05:30:41;100796.33;;;10.91;48.92
27304;BME280;14791;52.392;13.092;2023-02-23T05:33:10;100799.56;;;10.89;48.92
27304;BME280;14791;52.392;13.092;2023-02-23T05:35:40;100797.58;;;10.85;48.95
27304;BME280;14791;52.392;13.092;2023-02-23T05:38:09;100800.41;;;10.82;48.97
27304;BME280;14791;52.392;13.092;2023-02-23T05:40:38;100804.13;;;10.79;48.99
27304;BME280;14791;52.392;13.092;2023-02-23T05:43:07;100802.52;;;10.77;49.00
27304;BME280;14791;52.392;13.092;2023-02-23T05:45:41;100812.43;;;10.75;49.00
27304;BME280;14791;52.392;13.092;2023-02-23T05:48:11;100812.55;;;10.73;49.01
27304;BME280;14791;52.392;13.092;2023-02-23T05:50:41;100808.81;;;10.69;49.03
27304;BME280;14791;52.392;13.092;2023-02-23T05:53:10;100813.87;;;10.66;49.04
27304;BME280;14791;52.392;13.092;2023-02-23T05:55:39;100807.27;;;10.64;49.06
27304;BME280;14791;52.392;13.092;2023-02-23T05:58:07;100812.33;;;10.62;49.09
27304;BME280;14791;52.392;13.092;2023-02-23T06:00:36;100804.99;;;10.58;49.14
27304;BME280;14791;52.392;13.092;2023-02-23T06:03:05;100810.42;;;10.57;49.20
27304;BME280;14791;52.392;13.092;2023-02-23T06:05:34;100817.09;;;10.57;49.23
27304;BME280;14791;52.392;13.092;2023-02-23T06:08:03;100816.32;;;10.55;49.27
27304;BME280;14791;52.392;13.092;2023-02-23T06:10:32;100815.95;;;10.54;49.29
27304;BME280;14791;52.392;13.092;2023-02-23T06:13:01;100823.08;;;10.53;49.38
27304;BME280;14791;52.392;13.092;2023-02-23T06:15:30;100827.97;;;10.54;49.43
27304;BME280;14791;52.392;13.092;2023-02-23T06:17:59;100825.67;;;10.55;49.48
27304;BME280;14791;52.392;13.092;2023-02-23T06:20:28;100821.66;;;10.55;49.51
27304;BME280;14791;52.392;13.092;2023-02-23T06:22:57;100822.44;;;10.57;49.53
27304;BME280;14791;52.392;13.092;2023-02-23T06:25:26;100826.81;;;10.58;49.57
27304;BME280;14791;52.392;13.092;2023-02-23T06:27:55;100824.91;;;10.60;49.60
27304;BME280;14791;52.392;13.092;2023-02-23T06:30:24;100828.35;;;10.62;49.63
27304;BME280;14791;52.392;13.092;2023-02-23T06:32:53;100825.48;;;10.65;49.65
27304;BME280;14791;52.392;13.092;2023-02-23T06:35:22;100823.78;;;10.64;49.68
27304;BME280;14791;52.392;13.092;2023-02-23T06:37:52;100828.36;;;10.69;49.74
27304;BME280;14791;52.392;13.092;2023-02-23T06:40:21;100831.24;;;10.73;49.75
27304;BME280;14791;52.392;13.092;2023-02-23T06:42:50;100834.49;;;10.78;49.74
27304;BME280;14791;52.392;13.092;2023-02-23T06:45:19;100831.62;;;10.81;49.75
27304;BME280;14791;52.392;13.092;2023-02-23T06:47:48;100830.49;;;10.85;49.76
27304;BME280;14791;52.392;13.092;2023-02-23T06:50:18;100831.06;;;10.91;49.71
27304;BME280;14791;52.392;13.092;2023-02-23T06:52:47;100836.13;;;10.95;49.71
27304;BME280;14791;52.392;13.092;2023-02-23T06:55:16;100837.19;;;11.00;49.66
27304;BME280;14791;52.392;13.092;2023-02-23T06:57:52;100831.16;;;11.03;49.65
27304;BME280;14791;52.392;13.092;2023-02-23T07:00:18;100836.78;;;11.06;49.58
27304;BME280;14791;52.392;13.092;2023-02-23T07:02:48;100834.88;;;11.08;49.59
27304;BME280;14791;52.392;13.092;2023-02-23T07:05:17;100838.72;;;11.11;49.59
27304;BME280;14791;52.392;13.092;2023-02-23T07:07:46;100845.20;;;11.14;49.65
27304;BME280;14791;52.392;13.092;2023-02-23T07:10:15;100846.83;;;11.17;49.62
27304;BME280;14791;52.392;13.092;2023-02-23T07:12:44;100852.74;;;11.22;49.64
27304;BME280;14791;52.392;13.092;2023-02-23T07:15:13;100848.45;;;11.26;49.69
27304;BME280;14791;52.392;13.092;2023-02-23T07:17:44;100850.47;;;11.30;49.66
27304;BME280;14791;52.392;13.092;2023-02-23T07:20:15;100854.16;;;11.35;49.62
27304;BME280;14791;52.392;13.092;2023-02-23T07:22:44;100846.33;;;11.39;49.53
27304;BME280;14791;52.392;13.092;2023-02-23T07:25:13;100851.03;;;11.42;49.42
27304;BME280;14791;52.392;13.092;2023-02-23T07:27:42;100845.84;;;11.46;49.39
27304;BME280;14791;52.392;13.092;2023-02-23T07:30:13;100850.62;;;11.48;49.36
27304;BME280;14791;52.392;13.092;2023-02-23T07:32:44;100856.36;;;11.57;49.56
27304;BME280;14791;52.392;13.092;2023-02-23T07:35:13;100856.36;;;11.57;49.56
27304;BME280;14791;52.392;13.092;2023-02-23T07:37:42;100849.55;;;11.58;49.29
27304;BME280;14791;52.392;13.092;2023-02-23T07:40:11;100844.88;;;11.62;49.22
27304;BME280;14791;52.392;13.092;2023-02-23T07:42:40;100840.02;;;11.61;49.11
27304;BME280;14791;52.392;13.092;2023-02-23T07:45:10;100847.27;;;11.66;49.13
27304;BME280;14791;52.392;13.092;2023-02-23T07:47:39;100845.34;;;11.68;49.03
27304;BME280;14791;52.392;13.092;2023-02-23T07:50:09;100847.42;;;11.70;49.03
27304;BME280;14791;52.392;13.092;2023-02-23T07:52:41;100847.42;;;11.70;49.03
27304;BME280;14791;52.392;13.092;2023-02-23T07:55:11;100842.47;;;11.71;49.04
27304;BME280;14791;52.392;13.092;2023-02-23T07:57:40;100839.22;;;11.74;49.05
27304;BME280;14791;52.392;13.092;2023-02-23T08:00:10;100842.66;;;11.76;49.04
27304;BME280;14791;52.392;13.092;2023-02-23T08:02:43;100836.24;;;11.78;49.03
27304;BME280;14791;52.392;13.092;2023-02-23T08:05:12;100832.50;;;11.81;49.03
27304;BME280;14791;52.392;13.092;2023-02-23T08:07:40;100832.50;;;11.81;49.03
27304;BME280;14791;52.392;13.092;2023-02-23T08:10:10;100842.83;;;11.87;49.09
27304;BME280;14791;52.392;13.092;2023-02-23T08:12:39;100842.83;;;11.87;49.09
27304;BME280;14791;52.392;13.092;2023-02-23T08:15:09;100841.00;;;11.87;49.10
27304;BME280;14791;52.392;13.092;2023-02-23T08:17:38;100847.03;;;11.91;49.11
27304;BME280;14791;52.392;13.092;2023-02-23T08:20:09;100842.53;;;11.91;49.12
27304;BME280;14791;52.392;13.092;2023-02-23T08:22:38;100840.13;;;11.94;49.11
27304;BME280;14791;52.392;13.092;2023-02-23T08:25:07;100841.86;;;11.95;49.15
27304;BME280;14791;52.392;13.092;2023-02-23T08:27:38;100848.92;;;11.96;49.23
27304;BME280;14791;52.392;13.092;2023-02-23T08:30:08;100842.90;;;12.00;49.19
27304;BME280;14791;52.392;13.092;2023-02-23T08:32:37;100846.77;;;12.08;49.35
27304;BME280;14791;52.392;13.092;2023-02-23T08:35:08;100846.77;;;12.08;49.35
27304;BME280;14791;52.392;13.092;2023-02-23T08:37:37;100849.14;;;12.13;49.24
27304;BME280;14791;52.392;13.092;2023-02-23T08:40:07;100840.80;;;12.18;49.20
27304;BME280;14791;52.392;13.092;2023-02-23T08:42:35;100839.65;;;12.22;49.14
27304;BME280;14791;52.392;13.092;2023-02-23T08:45:05;100847.47;;;12.25;49.11
27304;BME280;14791;52.392;13.092;2023-02-23T08:47:34;100837.52;;;12.27;49.08
27304;BME280;14791;52.392;13.092;2023-02-23T08:50:04;100840.52;;;12.35;49.10
27304;BME280;14791;52.392;13.092;2023-02-23T08:52:33;100847.77;;;12.40;49.11
27304;BME280;14791;52.392;13.092;2023-02-23T08:55:02;100847.00;;;12.45;49.05
27304;BME280;14791;52.392;13.092;2023-02-23T08:57:34;100848.88;;;12.50;49.06
27304;BME280;14791;52.392;13.092;2023-02-23T09:00:04;100847.50;;;12.58;48.99
27304;BME280;14791;52.392;13.092;2023-02-23T09:02:38;100845.84;;;12.62;48.89
27304;BME280;14791;52.392;13.092;2023-02-23T09:05:07;100852.23;;;12.67;48.85
27304;BME280;14791;52.392;13.092;2023-02-23T09:07:38;100848.00;;;12.70;48.86
27304;BME280;14791;52.392;13.092;2023-02-23T09:10:09;100858.28;;;12.76;48.87
27304;BME280;14791;52.392;13.092;2023-02-23T09:12:38;100853.67;;;12.78;48.81
27304;BME280;14791;52.392;13.092;2023-02-23T09:15:08;100848.48;;;12.82;48.81
27304;BME280;14791;52.392;13.092;2023-02-23T09:17:37;100848.66;;;12.86;48.82
27304;BME280;14791;52.392;13.092;2023-02-23T09:20:08;100849.55;;;12.92;48.86
27304;BME280;14791;52.392;13.092;2023-02-23T09:22:42;100852.77;;;12.97;48.86
27304;BME280;14791;52.392;13.092;2023-02-23T09:25:15;100851.98;;;13.03;48.93
27304;BME280;14791;52.392;13.092;2023-02-23T09:27:46;100843.63;;;13.07;48.96
27304;BME280;14791;52.392;13.092;2023-02-23T09:30:18;100850.63;;;13.15;48.94
27304;BME280;14791;52.392;13.092;2023-02-23T09:32:54;100858.13;;;13.23;48.96
27304;BME280;14791;52.392;13.092;2023-02-23T09:35:19;100856.40;;;13.29;48.89
27304;BME280;14791;52.392;13.092;2023-02-23T09:37:51;100854.11;;;13.36;48.86
27304;BME280;14791;52.392;13.092;2023-02-23T09:40:27;100850.02;;;13.43;48.89
27304;BME280;14791;52.392;13.092;2023-02-23T09:43:11;100856.56;;;13.52;48.89
27304;BME280;14791;52.392;13.092;2023-02-23T09:45:57;100850.64;;;13.59;48.90
27304;BME280;14791;52.392;13.092;2023-02-23T09:48:27;100853.64;;;13.68;48.97
27304;BME280;14791;52.392;13.092;2023-02-23T09:50:57;100846.36;;;13.75;49.03
27304;BME280;14791;52.392;13.092;2023-02-23T09:53:41;100850.08;;;13.86;48.91
27304;BME280;14791;52.392;13.092;2023-02-23T09:56:17;100851.59;;;13.95;48.86
27304;BME280;14791;52.392;13.092;2023-02-23T09:58:44;100851.41;;;14.04;48.87
27304;BME280;14791;52.392;13.092;2023-02-23T10:04:09;100846.73;;;14.24;48.75
27304;BME280;14791;52.392;13.092;2023-02-23T10:06:32;100846.17;;;14.32;48.79
27304;BME280;14791;52.392;13.092;2023-02-23T10:09:14;100845.34;;;14.43;48.87
27304;BME280;14791;52.392;13.092;2023-02-23T10:11:44;100852.05;;;14.56;48.74
27304;BME280;14791;52.392;13.092;2023-02-23T10:17:22;100847.20;;;14.78;48.53
27304;BME280;14791;52.392;13.092;2023-02-23T10:19:57;100842.07;;;14.86;48.68
27304;BME280;14791;52.392;13.092;2023-02-23T10:22:25;100839.77;;;14.98;48.63
27304;BME280;14791;52.392;13.092;2023-02-23T10:25:11;100834.75;;;15.10;48.61
27304;BME280;14791;52.392;13.092;2023-02-23T10:27:35;100837.20;;;15.25;48.42
27304;BME280;14791;52.392;13.092;2023-02-23T10:30:02;100834.78;;;15.33;48.33
27304;BME280;14791;52.392;13.092;2023-02-23T10:32:50;100839.78;;;15.43;48.18
27304;BME280;14791;52.392;13.092;2023-02-23T10:35:20;100836.00;;;15.51;48.08
27304;BME280;14791;52.392;13.092;2023-02-23T10:37:51;100831.32;;;15.53;48.17
27304;BME280;14791;52.392;13.092;2023-02-23T10:40:23;100828.98;;;15.60;48.13
27304;BME280;14791;52.392;13.092;2023-02-23T10:42:58;100827.27;;;15.65;48.04
27304;BME280;14791;52.392;13.092;2023-02-23T10:45:25;100826.05;;;15.69;48.06
27304;BME280;14791;52.392;13.092;2023-02-23T10:47:57;100826.67;;;15.72;47.98
27304;BME280;14791;52.392;13.092;2023-02-23T10:50:27;100826.91;;;15.75;47.86
27304;BME280;14791;52.392;13.092;2023-02-23T10:53:10;100830.95;;;15.75;47.69
27304;BME280;14791;52.392;13.092;2023-02-23T10:55:31;100837.83;;;15.73;47.58
27304;BME280;14791;52.392;13.092;2023-02-23T10:58:15;100834.63;;;15.68;47.54
27304;BME280;14791;52.392;13.092;2023-02-23T11:00:59;100839.50;;;15.63;47.56
27304;BME280;14791;52.392;13.092;2023-02-23T11:03:41;100836.48;;;15.57;47.64
27304;BME280;14791;52.392;13.092;2023-02-23T11:06:33;100836.22;;;15.48;47.70
27304;BME280;14791;52.392;13.092;2023-02-23T11:11:57;100838.06;;;15.37;48.11
27304;BME280;14791;52.392;13.092;2023-02-23T11:14:28;100836.86;;;15.35;48.33
27304;BME280;14791;52.392;13.092;2023-02-23T11:16:59;100841.23;;;15.42;48.37
27304;BME280;14791;52.392;13.092;2023-02-23T11:19:33;100832.33;;;15.47;48.38
27304;BME280;14791;52.392;13.092;2023-02-23T11:22:07;100837.09;;;15.55;48.41
27304;BME280;14791;52.392;13.092;2023-02-23T11:24:40;100827.15;;;15.61;48.32
27304;BME280;14791;52.392;13.092;2023-02-23T11:27:18;100824.97;;;15.66;48.31
27304;BME280;14791;52.392;13.092;2023-02-23T11:29:49;100820.66;;;15.69;48.36
27304;BME280;14791;52.392;13.092;2023-02-23T11:32:25;100822.17;;;15.73;48.42
27304;BME280;14791;52.392;13.092;2023-02-23T11:37:40;100824.81;;;15.84;48.37
27304;BME280;14791;52.392;13.092;2023-02-23T11:40:24;100818.08;;;15.84;48.43
27304;BME280;14791;52.392;13.092;2023-02-23T11:45:49;100818.93;;;15.90;48.46
27304;BME280;14791;52.392;13.092;2023-02-23T11:48:33;100816.97;;;15.92;48.51
27304;BME280;14791;52.392;13.092;2023-02-23T11:51:04;100808.62;;;15.95;48.57
27304;BME280;14791;52.392;13.092;2023-02-23T11:53:39;100804.32;;;15.99;48.55
27304;BME280;14791;52.392;13.092;2023-02-23T11:56:08;100801.75;;;16.03;48.40
27304;BME280;14791;52.392;13.092;2023-02-23T12:01:33;100795.20;;;16.11;48.47
27304;BME280;14791;52.392;13.092;2023-02-23T12:03:52;100789.94;;;16.15;48.57
27304;BME280;14791;52.392;13.092;2023-02-23T12:09:31;100792.55;;;16.32;48.71
27304;BME280;14791;52.392;13.092;2023-02-23T12:12:03;100790.30;;;16.43;48.67
27304;BME280;14791;52.392;13.092;2023-02-23T12:14:45;100785.09;;;16.51;48.58
27304;BME280;14791;52.392;13.092;2023-02-23T12:17:15;100789.59;;;16.56;48.36
27304;BME280;14791;52.392;13.092;2023-02-23T12:19:46;100792.74;;;16.61;48.29
27304;BME280;14791;52.392;13.092;2023-02-23T12:22:23;100793.20;;;16.66;48.23
27304;BME280;14791;52.392;13.092;2023-02-23T12:25:01;100793.18;;;16.72;48.22
27304;BME280;14791;52.392;13.092;2023-02-23T12:27:47;100787.02;;;16.75;48.24
27304;BME280;14791;52.392;13.092;2023-02-23T12:30:26;100783.83;;;16.82;48.16
27304;BME280;14791;52.392;13.092;2023-02-23T12:33:08;100788.09;;;16.84;48.08
27304;BME280;14791;52.392;13.092;2023-02-23T12:35:57;100784.27;;;16.87;47.90
27304;BME280;14791;52.392;13.092;2023-02-23T12:38:45;100778.16;;;16.85;47.85
27304;BME280;14791;52.392;13.092;2023-02-23T12:41:24;100774.73;;;16.83;47.96
27304;BME280;14791;52.392;13.092;2023-02-23T12:44:03;100774.38;;;16.82;48.06
27304;BME280;14791;52.392;13.092;2023-02-23T12:46:43;100773.26;;;16.84;48.07
27304;BME280;14791;52.392;13.092;2023-02-23T12:52:03;100774.20;;;16.89;48.15
27304;BME280;14791;52.392;13.092;2023-02-23T12:54:35;100770.27;;;16.93;48.13
27304;BME280;14791;52.392;13.092;2023-02-23T13:07:47;100769.61;;;17.10;48.03
27304;BME280;14791;52.392;13.092;2023-02-23T13:13:37;100767.64;;;17.12;48.04
27304;BME280;14791;52.392;13.092;2023-02-23T13:19:08;100757.50;;;17.05;48.26
27304;BME280;14791;52.392;13.092;2023-02-23T13:21:39;100755.23;;;17.00;48.33
27304;BME280;14791;52.392;13.092;2023-02-23T13:24:17;100751.82;;;16.98;48.36
27304;BME280;14791;52.392;13.092;2023-02-23T13:29:35;100752.72;;;16.93;48.43
27304;BME280;14791;52.392;13.092;2023-02-23T13:32:15;100754.32;;;16.90;48.43
27304;BME280;14791;52.392;13.092;2023-02-23T13:34:50;100750.83;;;16.84;48.49
27304;BME280;14791;52.392;13.092;2023-02-23T13:37:27;100757.72;;;16.76;48.53
27304;BME280;14791;52.392;13.092;2023-02-23T13:39:58;100756.89;;;16.70;48.56
27304;BME280;14791;52.392;13.092;2023-02-23T13:48:05;100767.84;;;16.48;48.76
27304;BME280;14791;52.392;13.092;2023-02-23T13:50:49;100771.21;;;16.34;48.95
27304;BME280;14791;52.392;13.092;2023-02-23T13:56:18;100770.22;;;16.14;49.27
27304;BME280;14791;52.392;13.092;2023-02-23T13:58:59;100776.15;;;16.03;49.47
27304;BME280;14791;52.392;13.092;2023-02-23T14:01:37;100777.38;;;15.99;49.49
27304;BME280;14791;52.392;13.092;2023-02-23T14:07:00;100776.72;;;15.85;49.63
27304;BME280;14791;52.392;13.092;2023-02-23T14:09:31;100775.86;;;15.79;49.66
27304;BME280;14791;52.392;13.092;2023-02-23T14:12:25;100780.43;;;15.73;49.65
27304;BME280;14791;52.392;13.092;2023-02-23T14:14:54;100784.70;;;15.70;49.70
27304;BME280;14791;52.392;13.092;2023-02-23T14:20:13;100777.98;;;15.59;49.75
27304;BME280;14791;52.392;13.092;2023-02-23T14:25:51;100780.07;;;15.44;49.79
27304;BME280;14791;52.392;13.092;2023-02-23T14:33:55;100786.59;;;15.07;50.39
27304;BME280;14791;52.392;13.092;2023-02-23T14:38:59;100786.59;;;14.85;50.70
27304;BME280;14791;52.392;13.092;2023-02-23T14:44:11;100787.28;;;14.64;51.16
27304;BME280;14791;52.392;13.092;2023-02-23T14:46:52;100786.65;;;14.55;51.36
27304;BME280;14791;52.392;13.092;2023-02-23T14:49:18;100791.74;;;14.47;51.60
27304;BME280;14791;52.392;13.092;2023-02-23T14:51:55;100783.78;;;14.40;51.86
27304;BME280;14791;52.392;13.092;2023-02-23T14:54:34;100779.75;;;14.34;52.11